LTCK/MSR METAR and TAF weather

Enter ICAO airport designator
Station Type Date Time Source
LTCK METAR 2021/01/17 12:50 UTC NOAA

LTCK 171250Z 13012KT 090V150 9999 -RA BKN025 BKN070 04/01 Q1005


Station Type Date Time Source
LTCK Decoded METAR 2021/01/17 12:50 UTC NOAA

Mus Tur-Afb , Turkey (LTCK) 38-45N 041-40E
Jan 17, 2021 - 07:50 AM EST / 2021.01.17 1250 UTC
Wind: from the SE (130 degrees) at 14 MPH (12 KT) (direction variable):0
Visibility: greater than 7 mile(s):0
Sky conditions: mostly cloudy
Weather: light rain
Temperature: 39 F (4 C)
Dew Point: 33 F (1 C)
Relative Humidity: 80%
Pressure (altimeter): 29.68 in. Hg (1005 hPa)
ob: LTCK 171250Z 13012KT 090V150 9999 -RA BKN025 BKN070 04/01 Q1005
cycle: 13

Station Type Date Time Source
LTCK TAF UTC NOAA

Error!

Example: see airport list